createdAt,value
2023-02-27T00:00:27.477Z,-0.66
2023-02-27T00:03:30.655Z,-0.69
2023-02-27T00:06:33.412Z,-0.65
2023-02-27T00:09:36.529Z,-0.71
2023-02-27T00:12:39.660Z,-0.51
2023-02-27T00:15:46.246Z,-0.44
2023-02-27T00:18:49.027Z,-0.50
2023-02-27T00:21:52.146Z,-0.48
2023-02-27T00:24:54.970Z,-0.56
2023-02-27T00:27:58.105Z,-0.53
2023-02-27T00:31:00.896Z,-0.64
2023-02-27T00:34:04.384Z,-0.76
2023-02-27T00:37:07.132Z,-0.84
2023-02-27T00:40:11.507Z,-0.98
2023-02-27T00:43:14.235Z,-1.10
2023-02-27T00:46:17.339Z,-1.06
2023-02-27T00:49:20.879Z,-1.13
2023-02-27T00:52:24.019Z,-1.11
2023-02-27T00:55:27.933Z,-1.08
2023-02-27T00:58:30.997Z,-1.04
2023-02-27T01:01:33.733Z,-1.12
2023-02-27T01:04:37.168Z,-1.11
2023-02-27T01:07:40.030Z,-1.11
2023-02-27T01:10:43.209Z,-1.15
2023-02-27T01:13:46.452Z,-1.19
2023-02-27T01:16:49.781Z,-1.10
2023-02-27T01:19:52.617Z,-1.04
2023-02-27T01:22:55.621Z,-0.87
2023-02-27T01:25:58.358Z,-0.91
2023-02-27T01:29:04.654Z,-0.94
2023-02-27T01:32:08.816Z,-1.05
2023-02-27T01:35:13.583Z,-0.99
2023-02-27T01:38:16.434Z,-1.00
2023-02-27T01:41:19.599Z,-1.00
2023-02-27T01:44:22.449Z,-0.87
2023-02-27T01:47:25.496Z,-0.82
2023-02-27T01:50:28.426Z,-0.72
2023-02-27T01:53:34.456Z,-0.65
2023-02-27T01:56:37.665Z,-0.58
2023-02-27T01:59:42.639Z,-0.43
2023-02-27T02:02:55.176Z,-0.13
2023-02-27T02:06:01.947Z,-0.06
2023-02-27T02:09:05.721Z,-0.12
2023-02-27T02:12:12.084Z,-0.08
2023-02-27T02:15:16.126Z,-0.08
2023-02-27T02:18:31.647Z,0.05
2023-02-27T02:22:08.236Z,-0.16
2023-02-27T02:25:48.423Z,-0.18
2023-02-27T02:29:28.760Z,-0.12
2023-02-27T02:32:52.812Z,-0.42
2023-02-27T02:36:11.267Z,-0.52
2023-02-27T02:39:42.182Z,-0.58
2023-02-27T02:43:08.327Z,-0.37
2023-02-27T02:46:15.573Z,-0.50
2023-02-27T02:49:33.120Z,-0.41
2023-02-27T02:52:45.241Z,-0.48
2023-02-27T02:55:58.199Z,-0.43
2023-02-27T02:59:13.383Z,-0.43
2023-02-27T03:02:22.196Z,-0.28
2023-02-27T03:05:35.424Z,-0.24
2023-02-27T03:08:44.682Z,-0.34
2023-02-27T03:11:51.540Z,-0.50
2023-02-27T03:15:00.191Z,-0.48
2023-02-27T03:18:09.004Z,-0.80
2023-02-27T03:21:18.853Z,-1.08
2023-02-27T03:24:27.004Z,-0.85
2023-02-27T03:27:36.117Z,-0.82
2023-02-27T03:31:07.328Z,-0.79
2023-02-27T03:34:17.805Z,-0.55
2023-02-27T03:37:53.241Z,-0.78
2023-02-27T03:41:13.641Z,-1.10
2023-02-27T03:44:39.917Z,-1.00
2023-02-27T03:47:43.103Z,-1.28
2023-02-27T03:50:45.974Z,-1.33
2023-02-27T03:54:10.086Z,-1.39
2023-02-27T03:57:15.490Z,-1.31
2023-02-27T04:00:22.010Z,-1.34
2023-02-27T04:03:25.947Z,-1.02
2023-02-27T04:06:48.909Z,-1.04
2023-02-27T04:09:54.665Z,-0.89
2023-02-27T04:13:22.452Z,-0.83
2023-02-27T04:17:13.440Z,-0.88
2023-02-27T04:20:43.108Z,-0.85
2023-02-27T04:23:52.245Z,-0.96
2023-02-27T04:27:03.305Z,-0.91
2023-02-27T04:30:18.643Z,-1.00
2023-02-27T04:33:24.758Z,-0.78
2023-02-27T04:36:42.720Z,-0.87
2023-02-27T04:40:01.930Z,-0.92
2023-02-27T04:43:09.037Z,-1.14
2023-02-27T04:46:16.463Z,-1.05
2023-02-27T04:49:29.505Z,-0.95
2023-02-27T04:52:48.946Z,-1.01
2023-02-27T04:55:57.384Z,-0.94
2023-02-27T04:59:05.515Z,-1.28
2023-02-27T05:02:26.328Z,-1.24
2023-02-27T05:05:34.313Z,-1.42
2023-02-27T05:08:37.407Z,-1.59
2023-02-27T05:11:54.235Z,-1.55
2023-02-27T05:15:07.335Z,-1.62
2023-02-27T05:18:15.207Z,-1.53
2023-02-27T05:21:45.677Z,-1.25
2023-02-27T05:25:25.938Z,-1.47
2023-02-27T05:28:38.117Z,-1.27
2023-02-27T05:31:43.713Z,-1.24
2023-02-27T05:35:13.026Z,-1.14
2023-02-27T05:38:26.052Z,-1.29
2023-02-27T05:41:35.143Z,-1.43
2023-02-27T05:44:45.689Z,-1.44
2023-02-27T05:48:04.393Z,-1.44
2023-02-27T05:51:10.389Z,-1.45
2023-02-27T05:55:01.870Z,-1.36
2023-02-27T05:58:16.629Z,-1.32
2023-02-27T06:01:19.688Z,-1.20
2023-02-27T06:04:23.237Z,-1.21
2023-02-27T06:07:26.545Z,-1.20
2023-02-27T06:10:29.673Z,-1.28
2023-02-27T06:13:32.497Z,-1.20
2023-02-27T06:16:38.383Z,-1.16
2023-02-27T06:19:41.503Z,-1.01
2023-02-27T06:22:44.856Z,-0.95
2023-02-27T06:25:49.306Z,-0.98
2023-02-27T06:28:52.384Z,-0.92
2023-02-27T06:31:55.275Z,-0.81
2023-02-27T06:34:58.486Z,-0.75
2023-02-27T06:38:01.494Z,-0.71
2023-02-27T06:41:04.624Z,-0.68
2023-02-27T06:44:07.661Z,-0.59
2023-02-27T06:47:11.257Z,-0.52
2023-02-27T06:50:14.256Z,-0.47
2023-02-27T06:53:17.894Z,-0.48
2023-02-27T06:56:20.882Z,-0.52
2023-02-27T06:59:24.206Z,-0.43
2023-02-27T07:02:26.942Z,-0.34
2023-02-27T07:05:30.537Z,-0.32
2023-02-27T07:08:33.244Z,-0.30
2023-02-27T07:11:36.440Z,-0.27
2023-02-27T07:14:39.614Z,-0.28
2023-02-27T07:17:43.141Z,-0.28
2023-02-27T07:20:45.889Z,-0.13
2023-02-27T07:23:49.036Z,0.03
2023-02-27T07:26:51.641Z,0.12
2023-02-27T07:29:54.717Z,0.23
2023-02-27T07:32:57.436Z,0.33
2023-02-27T07:36:00.728Z,0.26
2023-02-27T07:39:03.910Z,0.21
2023-02-27T07:42:07.109Z,0.14
2023-02-27T07:45:10.319Z,-0.04
2023-02-27T07:48:13.421Z,0.13
2023-02-27T07:51:16.203Z,0.16
2023-02-27T07:54:19.712Z,0.19
2023-02-27T07:57:22.539Z,0.30
2023-02-27T08:00:25.649Z,0.34
2023-02-27T08:03:28.723Z,0.35
2023-02-27T08:06:31.460Z,0.39
2023-02-27T08:09:34.556Z,0.41
2023-02-27T08:12:37.327Z,0.35
2023-02-27T08:15:40.453Z,0.38
2023-02-27T08:18:43.259Z,0.47
2023-02-27T08:21:46.234Z,0.62
2023-02-27T08:24:48.987Z,0.70
2023-02-27T08:27:52.096Z,0.77
2023-02-27T08:30:55.314Z,0.81
2023-02-27T08:34:09.372Z,0.86
2023-02-27T08:37:13.288Z,0.86
2023-02-27T08:40:17.348Z,1.12
2023-02-27T08:43:23.390Z,1.12
2023-02-27T08:46:27.090Z,1.02
2023-02-27T08:49:29.874Z,0.86
2023-02-27T08:52:33.135Z,0.76
2023-02-27T08:55:35.972Z,0.72
2023-02-27T08:58:39.628Z,0.91
2023-02-27T09:01:42.753Z,0.97
2023-02-27T09:04:45.809Z,1.07
2023-02-27T09:07:48.828Z,1.13
2023-02-27T09:10:52.539Z,0.92
2023-02-27T09:13:56.148Z,1.07
2023-02-27T09:16:59.245Z,1.09
2023-02-27T09:20:04.854Z,1.28
2023-02-27T09:23:08.246Z,1.58
2023-02-27T09:26:11.158Z,1.84
2023-02-27T09:29:14.296Z,1.86
2023-02-27T09:32:17.067Z,2.22
2023-02-27T09:35:20.827Z,2.62
2023-02-27T09:38:23.657Z,2.79
2023-02-27T09:41:44.308Z,3.47
2023-02-27T09:44:52.803Z,3.84
2023-02-27T09:48:32.682Z,3.68
2023-02-27T09:51:35.623Z,3.70
2023-02-27T09:54:38.665Z,4.26
2023-02-27T09:58:06.991Z,4.68
2023-02-27T10:01:16.704Z,5.55
2023-02-27T10:04:38.153Z,5.90
2023-02-27T10:07:49.523Z,6.52
2023-02-27T10:11:11.134Z,6.52
2023-02-27T10:14:43.258Z,5.88
2023-02-27T10:17:56.627Z,5.93
2023-02-27T10:21:07.114Z,6.76
2023-02-27T10:24:29.774Z,7.00
2023-02-27T10:27:34.066Z,6.67
2023-02-27T10:30:37.167Z,6.88
2023-02-27T10:33:42.619Z,7.18
2023-02-27T10:36:46.942Z,6.59
2023-02-27T10:39:54.602Z,6.06
2023-02-27T10:43:01.716Z,6.65
2023-02-27T10:46:15.709Z,6.23
2023-02-27T10:49:22.428Z,6.08
2023-02-27T10:52:25.324Z,6.18
2023-02-27T10:55:31.797Z,6.33
2023-02-27T10:58:37.132Z,5.43
2023-02-27T11:01:47.397Z,5.42
2023-02-27T11:04:58.935Z,5.48
2023-02-27T11:08:20.705Z,6.16
2023-02-27T11:11:29.170Z,6.18
2023-02-27T11:14:33.718Z,5.99
2023-02-27T11:17:37.073Z,6.02
2023-02-27T11:20:43.222Z,6.44
2023-02-27T11:24:00.812Z,6.48
2023-02-27T11:27:18.186Z,6.49
2023-02-27T11:30:29.583Z,6.85
2023-02-27T11:33:39.034Z,6.72
2023-02-27T11:36:45.036Z,6.95
2023-02-27T11:39:51.610Z,6.92
2023-02-27T11:43:02.828Z,6.33
2023-02-27T11:46:37.566Z,6.92
2023-02-27T11:49:41.875Z,7.57
2023-02-27T11:52:58.811Z,8.02
2023-02-27T11:56:04.049Z,8.47
2023-02-27T11:59:12.805Z,8.80
2023-02-27T12:02:29.235Z,9.24
2023-02-27T12:05:39.342Z,9.43
2023-02-27T12:08:50.814Z,10.21
2023-02-27T12:11:55.292Z,10.74
2023-02-27T12:15:29.712Z,11.53
2023-02-27T12:18:41.343Z,11.10
2023-02-27T12:21:54.443Z,11.95
2023-02-27T12:25:20.373Z,11.69
2023-02-27T12:28:41.416Z,12.92
2023-02-27T12:31:47.717Z,13.36
2023-02-27T12:34:55.373Z,13.08
2023-02-27T12:37:59.038Z,13.30
2023-02-27T12:41:23.535Z,12.95
2023-02-27T12:44:42.922Z,11.67
2023-02-27T12:47:53.270Z,12.34
2023-02-27T12:51:05.464Z,11.78
2023-02-27T12:54:26.922Z,10.81
2023-02-27T12:57:40.380Z,9.89
2023-02-27T13:00:51.857Z,9.86
2023-02-27T13:04:05.995Z,8.44
2023-02-27T13:07:18.408Z,8.47
2023-02-27T13:10:51.068Z,9.57
2023-02-27T13:14:01.662Z,10.65
2023-02-27T13:17:18.773Z,11.02
2023-02-27T13:20:21.465Z,11.09
2023-02-27T13:23:50.062Z,10.41
2023-02-27T13:26:58.774Z,10.10
2023-02-27T13:30:05.468Z,9.02
2023-02-27T13:33:26.799Z,8.39
2023-02-27T13:36:36.493Z,7.54
2023-02-27T13:39:48.990Z,7.26
2023-02-27T13:42:53.332Z,6.96
2023-02-27T13:45:58.793Z,7.13
2023-02-27T13:49:04.448Z,6.83
2023-02-27T13:52:07.287Z,6.91
2023-02-27T13:55:33.399Z,6.96
2023-02-27T13:58:36.141Z,6.85
2023-02-27T14:01:39.627Z,7.07
2023-02-27T14:04:52.034Z,7.50
2023-02-27T14:08:01.640Z,7.87
2023-02-27T14:11:19.604Z,7.59
2023-02-27T14:14:40.278Z,7.79
2023-02-27T14:17:45.708Z,7.59
2023-02-27T14:20:50.540Z,7.15
2023-02-27T14:23:54.749Z,7.05
2023-02-27T14:26:58.220Z,7.05
2023-02-27T14:30:04.958Z,7.09
2023-02-27T14:33:10.593Z,6.85
2023-02-27T14:36:28.613Z,6.63
2023-02-27T14:39:35.028Z,6.45
2023-02-27T14:42:41.327Z,6.44
2023-02-27T14:45:44.203Z,6.69
2023-02-27T14:48:47.740Z,6.59
2023-02-27T14:51:50.913Z,6.89
2023-02-27T14:55:28.081Z,6.61
2023-02-27T14:58:30.886Z,6.35
2023-02-27T15:01:36.756Z,5.93
2023-02-27T15:04:39.648Z,5.93
2023-02-27T15:07:47.684Z,5.88
2023-02-27T15:10:53.325Z,6.09
2023-02-27T15:14:00.559Z,5.85
2023-02-27T15:17:05.101Z,5.93
2023-02-27T15:20:30.316Z,5.77
2023-02-27T15:23:33.620Z,5.61
2023-02-27T15:26:40.254Z,5.46
2023-02-27T15:29:57.255Z,5.44
2023-02-27T15:33:02.995Z,5.36
2023-02-27T15:36:06.382Z,5.21
2023-02-27T15:39:12.136Z,5.12
2023-02-27T15:42:15.324Z,5.07
2023-02-27T15:45:20.959Z,4.94
2023-02-27T15:48:24.713Z,4.98
2023-02-27T15:51:29.181Z,4.95
2023-02-27T15:54:35.944Z,4.90
2023-02-27T15:57:39.252Z,4.87
2023-02-27T16:00:43.398Z,4.79
2023-02-27T16:03:50.140Z,4.62
2023-02-27T16:07:05.298Z,4.61
2023-02-27T16:10:18.376Z,4.49
2023-02-27T16:13:21.088Z,4.45
2023-02-27T16:16:35.306Z,4.20
2023-02-27T16:19:40.803Z,4.11
2023-02-27T16:23:23.018Z,3.98
2023-02-27T16:26:38.445Z,3.85
2023-02-27T16:29:45.053Z,3.71
2023-02-27T16:32:48.079Z,3.61
2023-02-27T16:36:05.033Z,3.51
2023-02-27T16:39:14.144Z,3.40
2023-02-27T16:42:17.564Z,3.35
2023-02-27T16:45:26.791Z,3.21
2023-02-27T16:48:30.230Z,3.14
2023-02-27T16:51:35.321Z,3.07
2023-02-27T16:54:38.924Z,2.99
2023-02-27T16:57:42.387Z,2.84
2023-02-27T17:00:49.053Z,2.77
2023-02-27T17:03:53.295Z,2.73
2023-02-27T17:07:01.120Z,2.62
2023-02-27T17:10:05.997Z,2.58
2023-02-27T17:13:09.343Z,2.44
2023-02-27T17:16:13.870Z,2.47
2023-02-27T17:19:17.352Z,2.45
2023-02-27T17:22:20.193Z,2.29
2023-02-27T17:25:24.214Z,2.25
2023-02-27T17:28:27.422Z,2.18
2023-02-27T17:31:33.743Z,2.08
2023-02-27T17:34:37.079Z,2.02
2023-02-27T17:37:41.717Z,1.79
2023-02-27T17:40:45.175Z,1.73
2023-02-27T17:43:55.665Z,1.56
2023-02-27T17:46:59.223Z,1.56
2023-02-27T17:50:04.700Z,1.58
2023-02-27T17:53:10.153Z,1.58
2023-02-27T17:56:15.263Z,1.62
2023-02-27T17:59:19.583Z,1.66
2023-02-27T18:02:28.916Z,1.58
2023-02-27T18:05:34.216Z,1.50
2023-02-27T18:08:38.029Z,1.41
2023-02-27T18:11:42.592Z,1.52
2023-02-27T18:14:46.094Z,1.44
2023-02-27T18:17:52.186Z,1.41
2023-02-27T18:21:10.878Z,1.26
2023-02-27T18:24:17.723Z,1.17
2023-02-27T18:27:25.714Z,0.89
2023-02-27T18:30:32.100Z,0.70
2023-02-27T18:33:36.288Z,0.53
2023-02-27T18:36:43.694Z,0.41
2023-02-27T18:39:47.778Z,0.38
2023-02-27T18:42:53.239Z,0.36
2023-02-27T18:45:57.680Z,0.47
2023-02-27T18:49:01.799Z,0.65
2023-02-27T18:52:05.696Z,0.70
2023-02-27T18:55:12.162Z,0.71
2023-02-27T18:58:16.265Z,0.92
2023-02-27T19:01:32.630Z,0.93
2023-02-27T19:04:37.320Z,0.68
2023-02-27T19:07:42.987Z,0.51
2023-02-27T19:10:47.400Z,0.50
2023-02-27T19:13:51.781Z,0.61
2023-02-27T19:16:57.327Z,0.58
2023-02-27T19:20:06.919Z,0.61
2023-02-27T19:23:14.203Z,0.74
2023-02-27T19:26:19.749Z,0.57
2023-02-27T19:29:23.487Z,0.41
2023-02-27T19:32:28.790Z,0.39
2023-02-27T19:35:32.800Z,0.25
2023-02-27T19:38:38.590Z,0.12
2023-02-27T19:41:42.165Z,0.08
2023-02-27T19:44:46.882Z,0.07
2023-02-27T19:47:57.413Z,0.17
2023-02-27T19:51:10.892Z,0.30
2023-02-27T19:54:16.719Z,0.45
2023-02-27T19:57:22.765Z,0.49
2023-02-27T20:00:27.670Z,0.57
2023-02-27T20:03:34.302Z,0.71
2023-02-27T20:06:42.454Z,0.93
2023-02-27T20:09:46.544Z,0.96
2023-02-27T20:12:50.443Z,1.00
2023-02-27T20:16:00.186Z,1.02
2023-02-27T20:19:06.742Z,0.93
2023-02-27T20:22:14.255Z,1.09
2023-02-27T20:25:17.675Z,1.20
2023-02-27T20:28:23.443Z,1.26
2023-02-27T20:31:30.466Z,1.32
2023-02-27T20:34:36.690Z,1.34
2023-02-27T20:37:40.541Z,1.07
2023-02-27T20:40:45.244Z,0.99
2023-02-27T20:43:49.599Z,0.55
2023-02-27T20:46:57.090Z,0.37
2023-02-27T20:50:01.275Z,0.48
2023-02-27T20:53:05.768Z,0.63
2023-02-27T20:56:11.262Z,0.74
2023-02-27T20:59:17.582Z,0.72
2023-02-27T21:02:21.402Z,0.82
2023-02-27T21:05:26.096Z,0.83
2023-02-27T21:08:29.034Z,0.82
2023-02-27T21:11:34.487Z,0.77
2023-02-27T21:14:41.939Z,0.75
2023-02-27T21:17:46.999Z,0.82
2023-02-27T21:20:49.794Z,0.98
2023-02-27T21:23:53.345Z,1.21
2023-02-27T21:26:59.417Z,0.99
2023-02-27T21:30:02.692Z,0.88
2023-02-27T21:33:05.787Z,0.86
2023-02-27T21:36:10.383Z,0.79
2023-02-27T21:39:33.841Z,0.79
2023-02-27T21:42:36.822Z,0.87
2023-02-27T21:45:44.144Z,0.73
2023-02-27T21:48:47.266Z,0.79
2023-02-27T21:51:50.667Z,0.74
2023-02-27T21:54:54.463Z,0.70
2023-02-27T21:57:57.338Z,0.71
2023-02-27T22:01:00.972Z,0.70
2023-02-27T22:04:04.799Z,0.71
2023-02-27T22:07:08.432Z,0.66
2023-02-27T22:10:13.003Z,0.64
2023-02-27T22:13:16.223Z,0.65
2023-02-27T22:16:20.351Z,0.63
2023-02-27T22:19:23.545Z,0.66
2023-02-27T22:22:26.842Z,0.67
2023-02-27T22:25:29.587Z,0.61
2023-02-27T22:28:34.064Z,0.71
2023-02-27T22:31:38.388Z,0.78
2023-02-27T22:34:41.513Z,0.72
2023-02-27T22:37:44.209Z,0.66
2023-02-27T22:40:47.240Z,0.62
2023-02-27T22:43:50.820Z,0.64
2023-02-27T22:46:56.051Z,0.77
2023-02-27T22:49:58.865Z,0.79
2023-02-27T22:53:01.890Z,0.82
2023-02-27T22:56:09.883Z,0.93
2023-02-27T22:59:12.918Z,1.02
2023-02-27T23:02:17.491Z,1.20
2023-02-27T23:05:20.539Z,1.31
2023-02-27T23:08:23.303Z,1.38
2023-02-27T23:11:26.713Z,1.30
2023-02-27T23:14:30.005Z,1.43
2023-02-27T23:17:33.290Z,1.46
2023-02-27T23:20:39.614Z,1.56
2023-02-27T23:23:43.482Z,1.67
2023-02-27T23:26:50.981Z,1.65
2023-02-27T23:29:53.994Z,1.66
2023-02-27T23:32:57.677Z,1.79
2023-02-27T23:36:01.736Z,1.87
2023-02-27T23:39:05.837Z,1.94
2023-02-27T23:42:08.900Z,1.92
2023-02-27T23:45:33.329Z,1.90
2023-02-27T23:48:37.788Z,1.71
2023-02-27T23:51:40.699Z,1.59
2023-02-27T23:54:43.725Z,1.58
2023-02-27T23:57:46.576Z,1.64
